createdAt,value
2019-02-24T00:00:48.459Z,19.70
2019-02-24T00:01:48.430Z,19.00
2019-02-24T00:02:48.425Z,18.20
2019-02-24T00:03:48.406Z,19.10
2019-02-24T00:04:48.399Z,19.30
2019-02-24T00:05:48.411Z,18.30
2019-02-24T00:06:48.373Z,18.40
2019-02-24T00:07:48.362Z,19.10
2019-02-24T00:08:48.350Z,17.90
2019-02-24T00:09:48.341Z,17.20
2019-02-24T00:10:48.329Z,19.50
2019-02-24T00:11:48.341Z,17.00
2019-02-24T00:12:48.306Z,21.00
2019-02-24T00:13:48.295Z,18.90
2019-02-24T00:14:48.288Z,18.70
2019-02-24T00:15:48.272Z,18.10
2019-02-24T00:16:48.287Z,19.30
2019-02-24T00:17:48.267Z,18.80
2019-02-24T00:18:48.241Z,18.50
2019-02-24T00:19:48.231Z,18.40
2019-02-24T00:20:48.221Z,17.40
2019-02-24T00:21:48.229Z,19.30
2019-02-24T00:22:48.197Z,22.80
2019-02-24T00:23:48.187Z,22.70
2019-02-24T00:24:48.174Z,18.80
2019-02-24T00:25:48.164Z,20.10
2019-02-24T00:26:48.178Z,18.30
2019-02-24T00:27:48.141Z,18.70
2019-02-24T00:28:48.130Z,18.70
2019-02-24T00:29:48.119Z,18.40
2019-02-24T00:30:48.108Z,20.40
2019-02-24T00:31:48.131Z,19.60
2019-02-24T00:32:48.085Z,19.90
2019-02-24T00:33:48.080Z,22.20
2019-02-24T00:34:48.065Z,23.20
2019-02-24T00:35:48.054Z,22.20
2019-02-24T00:36:48.046Z,20.80
2019-02-24T00:37:48.071Z,19.90
2019-02-24T00:38:48.025Z,19.20
2019-02-24T00:39:48.009Z,20.60
2019-02-24T00:40:48.000Z,19.50
2019-02-24T00:41:47.987Z,20.10
2019-02-24T00:42:47.999Z,18.50
2019-02-24T00:43:47.969Z,18.10
2019-02-24T00:44:47.959Z,18.10
2019-02-24T00:45:47.946Z,17.80
2019-02-24T00:46:47.934Z,17.00
2019-02-24T00:47:47.945Z,19.70
2019-02-24T00:48:47.955Z,17.10
2019-02-24T00:49:47.898Z,16.80
2019-02-24T00:50:47.888Z,18.80
2019-02-24T00:51:47.878Z,18.60
2019-02-24T00:52:47.890Z,15.70
2019-02-24T00:53:47.857Z,17.90
2019-02-24T00:54:47.846Z,17.30
2019-02-24T00:55:47.837Z,19.50
2019-02-24T00:56:47.828Z,17.40
2019-02-24T00:57:48.291Z,18.40
2019-02-24T00:58:47.803Z,17.80
2019-02-24T00:59:47.789Z,20.20
2019-02-24T01:00:47.784Z,17.70
2019-02-24T01:01:47.769Z,16.60
2019-02-24T01:02:47.784Z,17.10
2019-02-24T01:03:47.750Z,18.40
2019-02-24T01:04:47.736Z,17.40
2019-02-24T01:05:47.726Z,18.50
2019-02-24T01:06:47.719Z,18.00
2019-02-24T01:07:47.703Z,16.70
2019-02-24T01:08:47.714Z,17.30
2019-02-24T01:09:47.683Z,18.60
2019-02-24T01:10:47.672Z,17.10
2019-02-24T01:11:47.661Z,18.20
2019-02-24T01:12:47.650Z,18.20
2019-02-24T01:13:47.658Z,16.60
2019-02-24T01:14:47.623Z,17.10
2019-02-24T01:15:47.616Z,17.40
2019-02-24T01:16:47.609Z,17.60
2019-02-24T01:17:47.593Z,17.70
2019-02-24T01:18:47.629Z,17.40
2019-02-24T01:19:47.568Z,16.70
2019-02-24T01:20:47.560Z,17.00
2019-02-24T01:21:47.550Z,15.00
2019-02-24T01:22:47.535Z,15.80
2019-02-24T01:23:47.552Z,18.60
2019-02-24T01:24:47.514Z,19.50
2019-02-24T01:25:47.502Z,17.50
2019-02-24T01:26:47.499Z,18.30
2019-02-24T01:27:47.481Z,18.40
2019-02-24T01:28:47.493Z,21.40
2019-02-24T01:29:47.508Z,20.60
2019-02-24T01:30:47.447Z,19.40
2019-02-24T01:31:47.436Z,16.60
2019-02-24T01:32:47.425Z,15.90
2019-02-24T01:33:47.437Z,16.00
2019-02-24T01:34:47.406Z,15.30
2019-02-24T01:35:47.394Z,16.10
2019-02-24T01:36:47.380Z,16.80
2019-02-24T01:37:47.370Z,17.70
2019-02-24T01:38:47.358Z,17.40
2019-02-24T01:39:47.369Z,15.20
2019-02-24T01:40:47.339Z,18.80
2019-02-24T01:41:47.326Z,15.90
2019-02-24T01:42:47.317Z,18.50
2019-02-24T01:43:47.306Z,17.10
2019-02-24T01:44:47.358Z,16.60
2019-02-24T01:45:47.282Z,16.50
2019-02-24T01:46:47.273Z,19.00
2019-02-24T01:47:47.260Z,16.20
2019-02-24T01:48:47.248Z,16.50
2019-02-24T01:49:47.258Z,16.40
2019-02-24T01:50:47.226Z,14.40
2019-02-24T01:51:47.217Z,15.10
2019-02-24T01:52:47.204Z,19.00
2019-02-24T01:53:47.193Z,18.00
2019-02-24T01:54:47.203Z,14.50
2019-02-24T01:55:47.175Z,16.90
2019-02-24T01:56:47.167Z,16.40
2019-02-24T01:57:47.152Z,15.00
2019-02-24T01:58:47.142Z,15.40
2019-02-24T01:59:47.174Z,15.10
2019-02-24T02:00:47.116Z,13.30
2019-02-24T02:01:47.105Z,15.90
2019-02-24T02:02:47.096Z,16.20
2019-02-24T02:03:47.083Z,16.80
2019-02-24T02:04:47.082Z,18.60
2019-02-24T02:05:47.083Z,17.20
2019-02-24T02:06:47.049Z,16.20
2019-02-24T02:07:47.039Z,15.90
2019-02-24T02:08:47.031Z,15.50
2019-02-24T02:09:47.017Z,16.50
2019-02-24T02:10:47.033Z,17.10
2019-02-24T02:11:46.995Z,15.90
2019-02-24T02:12:46.984Z,18.00
2019-02-24T02:13:46.971Z,17.80
2019-02-24T02:14:46.960Z,16.60
2019-02-24T02:15:46.970Z,17.40
2019-02-24T02:16:46.947Z,14.60
2019-02-24T02:17:46.928Z,15.90
2019-02-24T02:18:46.924Z,15.50
2019-02-24T02:19:46.911Z,19.40
2019-02-24T02:20:46.918Z,16.10
2019-02-24T02:21:46.885Z,17.60
2019-02-24T02:22:46.872Z,15.60
2019-02-24T02:23:46.864Z,15.40
2019-02-24T02:24:46.850Z,16.10
2019-02-24T02:25:46.864Z,15.90
2019-02-24T02:26:46.829Z,16.90
2019-02-24T02:27:46.822Z,15.30
2019-02-24T02:28:46.806Z,15.90
2019-02-24T02:29:46.798Z,18.00
2019-02-24T02:30:46.822Z,15.60
2019-02-24T02:31:46.774Z,15.90
2019-02-24T02:32:46.764Z,16.50
2019-02-24T02:33:46.752Z,16.40
2019-02-24T02:34:46.754Z,15.20
2019-02-24T02:35:46.733Z,17.00
2019-02-24T02:36:46.743Z,15.70
2019-02-24T02:37:46.712Z,15.70
2019-02-24T02:38:46.699Z,14.70
2019-02-24T02:39:46.686Z,14.60
2019-02-24T02:40:46.675Z,15.20
2019-02-24T02:41:46.683Z,15.90
2019-02-24T02:42:46.656Z,14.80
2019-02-24T02:43:46.642Z,16.00
2019-02-24T02:44:46.632Z,16.80
2019-02-24T02:45:46.622Z,15.90
2019-02-24T02:46:47.313Z,16.40
2019-02-24T02:47:46.598Z,16.40
2019-02-24T02:48:46.585Z,15.60
2019-02-24T02:49:46.576Z,15.30
2019-02-24T02:50:46.564Z,15.60
2019-02-24T02:51:46.573Z,16.70
2019-02-24T02:52:46.544Z,15.40
2019-02-24T02:53:46.531Z,16.80
2019-02-24T02:54:46.524Z,16.10
2019-02-24T02:55:46.510Z,14.80
2019-02-24T02:56:46.528Z,16.50
2019-02-24T02:57:46.487Z,14.80
2019-02-24T02:58:53.924Z,17.50
2019-02-24T02:59:47.464Z,16.60
2019-02-24T03:00:46.455Z,14.60
2019-02-24T03:01:46.450Z,17.30
2019-02-24T03:02:46.453Z,16.00
2019-02-24T03:03:46.424Z,16.60
2019-02-24T03:04:46.411Z,14.00
2019-02-24T03:05:46.403Z,16.70
2019-02-24T03:06:46.394Z,15.20
2019-02-24T03:07:46.400Z,15.00
2019-02-24T03:08:46.366Z,15.70
2019-02-24T03:09:46.354Z,15.10
2019-02-24T03:10:46.345Z,14.10
2019-02-24T03:11:46.335Z,16.70
2019-02-24T03:12:46.344Z,15.00
2019-02-24T03:13:46.311Z,15.40
2019-02-24T03:14:46.300Z,15.30
2019-02-24T03:15:46.289Z,14.10
2019-02-24T03:16:46.282Z,16.30
2019-02-24T03:17:46.295Z,14.30
2019-02-24T03:18:46.257Z,15.70
2019-02-24T03:19:46.252Z,15.40
2019-02-24T03:20:46.234Z,13.20
2019-02-24T03:21:46.227Z,15.50
2019-02-24T03:22:46.235Z,14.20
2019-02-24T03:23:46.204Z,15.40
2019-02-24T03:24:46.205Z,14.70
2019-02-24T03:25:46.178Z,15.00
2019-02-24T03:26:46.170Z,14.60
2019-02-24T03:27:46.157Z,14.90
2019-02-24T03:28:46.168Z,14.60
2019-02-24T03:29:46.135Z,12.90
2019-02-24T03:30:46.125Z,14.00
2019-02-24T03:31:46.113Z,14.80
2019-02-24T03:32:46.102Z,14.60
2019-02-24T03:33:46.121Z,15.80
2019-02-24T03:34:46.081Z,13.40
2019-02-24T03:35:46.073Z,15.20
2019-02-24T03:36:46.058Z,14.90
2019-02-24T03:37:46.052Z,15.30
2019-02-24T03:38:46.058Z,14.60
2019-02-24T03:39:46.024Z,13.60
2019-02-24T03:40:46.013Z,15.20
2019-02-24T03:41:46.007Z,14.00
2019-02-24T03:42:45.992Z,13.80
2019-02-24T03:43:46.001Z,13.90
2019-02-24T03:44:45.976Z,13.70
2019-02-24T03:45:45.961Z,14.90
2019-02-24T03:46:45.955Z,15.10
2019-02-24T03:47:45.937Z,13.00
2019-02-24T03:48:45.960Z,13.10
2019-02-24T03:49:45.917Z,14.10
2019-02-24T03:50:45.907Z,16.00
2019-02-24T03:51:45.891Z,13.30
2019-02-24T03:52:45.882Z,14.40
2019-02-24T03:53:45.900Z,14.30
2019-02-24T03:54:45.878Z,16.80
2019-02-24T03:55:45.848Z,16.40
2019-02-24T03:56:45.838Z,13.20
2019-02-24T03:57:45.827Z,15.40
2019-02-24T03:58:45.819Z,14.80
2019-02-24T03:59:45.829Z,12.60
2019-02-24T04:00:45.794Z,12.90
2019-02-24T04:01:45.798Z,15.80
2019-02-24T04:02:45.774Z,14.20
2019-02-24T04:03:45.803Z,13.90
2019-02-24T04:04:45.773Z,14.90
2019-02-24T04:05:45.739Z,13.60
2019-02-24T04:06:45.730Z,15.00
2019-02-24T04:07:45.717Z,12.80
2019-02-24T04:08:45.703Z,13.70
2019-02-24T04:09:45.725Z,15.40
2019-02-24T04:10:45.684Z,13.70
2019-02-24T04:11:45.674Z,15.10
2019-02-24T04:12:45.660Z,15.30
2019-02-24T04:13:45.655Z,16.20
2019-02-24T04:14:45.639Z,14.90
2019-02-24T04:15:45.647Z,14.20
2019-02-24T04:16:45.618Z,14.10
2019-02-24T04:17:45.605Z,14.30
2019-02-24T04:18:45.598Z,13.20
2019-02-24T04:19:45.584Z,15.40
2019-02-24T04:20:45.597Z,14.90
2019-02-24T04:21:45.561Z,14.00
2019-02-24T04:22:45.550Z,16.20
2019-02-24T04:23:45.552Z,14.60
2019-02-24T04:24:45.529Z,14.30
2019-02-24T04:25:45.542Z,14.60
2019-02-24T04:26:45.507Z,14.40
2019-02-24T04:27:45.495Z,16.20
2019-02-24T04:28:45.485Z,17.00
2019-02-24T04:29:45.475Z,15.40
2019-02-24T04:30:45.481Z,14.10
2019-02-24T04:31:45.454Z,15.40
2019-02-24T04:32:45.444Z,15.00
2019-02-24T04:33:45.428Z,14.80
2019-02-24T04:34:45.420Z,14.20
2019-02-24T04:35:45.430Z,15.20
2019-02-24T04:36:45.396Z,14.10
2019-02-24T04:37:45.385Z,16.10
2019-02-24T04:38:45.375Z,15.00
2019-02-24T04:39:45.366Z,14.60
2019-02-24T04:40:45.374Z,15.00
2019-02-24T04:41:45.340Z,15.20
2019-02-24T04:42:45.329Z,13.70
2019-02-24T04:43:45.319Z,16.00
2019-02-24T04:44:45.310Z,15.40
2019-02-24T04:45:45.325Z,14.40
2019-02-24T04:46:45.287Z,13.50
2019-02-24T04:47:45.274Z,14.20
2019-02-24T04:48:45.267Z,13.10
2019-02-24T04:49:45.257Z,15.20
2019-02-24T04:50:45.268Z,11.60
2019-02-24T04:51:45.232Z,14.90
2019-02-24T04:52:45.220Z,14.20
2019-02-24T04:53:45.211Z,13.40
2019-02-24T04:54:45.199Z,14.10
2019-02-24T04:55:45.235Z,15.60
2019-02-24T04:56:45.174Z,15.40
2019-02-24T04:57:45.171Z,13.20
2019-02-24T04:58:45.159Z,15.50
2019-02-24T04:59:45.147Z,14.70
2019-02-24T05:00:45.132Z,13.40
2019-02-24T05:01:45.143Z,13.80
2019-02-24T05:02:45.113Z,15.20
2019-02-24T05:03:45.102Z,14.00
2019-02-24T05:04:45.087Z,13.50
2019-02-24T05:05:45.080Z,13.60
2019-02-24T05:06:46.823Z,14.00
2019-02-24T05:07:45.054Z,13.00
2019-02-24T05:08:45.043Z,13.30
2019-02-24T05:09:45.036Z,12.40
2019-02-24T05:10:45.023Z,13.80
2019-02-24T05:11:45.040Z,13.50
2019-02-24T05:12:45.000Z,15.70
2019-02-24T05:13:44.989Z,14.70
2019-02-24T05:14:44.979Z,16.90
2019-02-24T05:15:44.966Z,13.90
2019-02-24T05:16:46.825Z,14.20
2019-02-24T05:17:44.944Z,15.20
2019-02-24T05:18:44.935Z,14.90
2019-02-24T05:19:44.921Z,14.80
2019-02-24T05:20:44.913Z,13.70
2019-02-24T05:21:44.928Z,14.40
2019-02-24T05:22:44.912Z,13.50
2019-02-24T05:23:44.880Z,16.00
2019-02-24T05:24:44.867Z,15.70
2019-02-24T05:25:44.857Z,14.90
2019-02-24T05:26:44.847Z,14.50
2019-02-24T05:27:44.855Z,14.70
2019-02-24T05:28:44.829Z,15.60
2019-02-24T05:29:46.322Z,13.70
2019-02-24T05:30:44.801Z,13.20
2019-02-24T05:31:44.791Z,14.20
2019-02-24T05:32:44.811Z,13.80
2019-02-24T05:33:44.770Z,16.70
2019-02-24T05:34:44.760Z,12.90
2019-02-24T05:35:44.745Z,14.20
2019-02-24T05:36:44.736Z,14.20
2019-02-24T05:37:44.753Z,15.00
2019-02-24T05:38:44.713Z,14.30
2019-02-24T05:39:44.704Z,13.10
2019-02-24T05:40:44.696Z,15.10
2019-02-24T05:41:44.681Z,14.80
2019-02-24T05:42:44.671Z,15.20
2019-02-24T05:43:44.683Z,15.00
2019-02-24T05:44:44.650Z,14.80
2019-02-24T05:45:44.645Z,16.60
2019-02-24T05:46:44.624Z,14.60
2019-02-24T05:47:44.613Z,14.30
2019-02-24T05:48:44.626Z,13.60
2019-02-24T05:49:44.593Z,14.20
2019-02-24T05:50:44.584Z,13.60
2019-02-24T05:51:44.571Z,14.70
2019-02-24T05:52:44.559Z,14.40
2019-02-24T05:53:44.568Z,13.60
2019-02-24T05:54:44.541Z,13.70
2019-02-24T05:55:44.528Z,14.00
2019-02-24T05:56:44.525Z,16.30
2019-02-24T05:57:44.506Z,14.00
2019-02-24T05:58:44.518Z,14.50
2019-02-24T05:59:44.483Z,13.10
2019-02-24T06:00:44.472Z,15.50
2019-02-24T06:01:44.462Z,16.50
2019-02-24T06:02:44.454Z,15.60
2019-02-24T06:03:44.463Z,15.60
2019-02-24T06:04:44.427Z,13.90
2019-02-24T06:05:44.426Z,17.20
2019-02-24T06:06:44.404Z,15.30
2019-02-24T06:07:44.395Z,16.00
2019-02-24T06:08:44.387Z,17.80
2019-02-24T06:09:44.401Z,16.00
2019-02-24T06:10:44.361Z,16.10
2019-02-24T06:11:44.353Z,16.40
2019-02-24T06:12:44.380Z,16.60
2019-02-24T06:13:44.329Z,17.10
2019-02-24T06:14:44.340Z,14.60
2019-02-24T06:15:44.309Z,15.00
2019-02-24T06:16:44.300Z,16.20
2019-02-24T06:17:44.286Z,14.70
2019-02-24T06:18:44.275Z,15.00
2019-02-24T06:19:45.833Z,15.70
2019-02-24T06:20:44.261Z,17.90
2019-02-24T06:21:44.242Z,16.10
2019-02-24T06:22:44.240Z,15.10
2019-02-24T06:23:44.221Z,15.60
2019-02-24T06:24:44.210Z,17.70
2019-02-24T06:25:44.218Z,14.40
2019-02-24T06:26:44.187Z,14.60
2019-02-24T06:27:44.187Z,16.90
2019-02-24T06:28:44.165Z,16.00
2019-02-24T06:29:44.154Z,14.30
2019-02-24T06:30:44.163Z,15.90
2019-02-24T06:31:44.133Z,16.10
2019-02-24T06:32:44.123Z,13.50
2019-02-24T06:33:44.115Z,14.70
2019-02-24T06:34:44.099Z,15.30
2019-02-24T06:35:44.113Z,13.90
2019-02-24T06:36:44.084Z,15.20
2019-02-24T06:37:44.074Z,14.90
2019-02-24T06:38:44.056Z,14.40
2019-02-24T06:39:44.051Z,14.50
2019-02-24T06:40:44.060Z,14.50
2019-02-24T06:41:44.022Z,12.60
2019-02-24T06:42:44.018Z,13.50
2019-02-24T06:43:44.002Z,12.80
2019-02-24T06:44:43.989Z,13.00
2019-02-24T06:45:44.001Z,13.10
2019-02-24T06:46:43.971Z,13.00
2019-02-24T06:47:43.957Z,13.20
2019-02-24T06:48:43.949Z,13.30
2019-02-24T06:49:43.935Z,13.60
2019-02-24T06:50:43.954Z,14.50
2019-02-24T06:51:43.919Z,16.10
2019-02-24T06:52:43.913Z,12.40
2019-02-24T06:53:43.894Z,13.60
2019-02-24T06:54:43.882Z,14.20
2019-02-24T06:55:43.873Z,14.60
2019-02-24T06:56:43.882Z,13.50
2019-02-24T06:57:43.855Z,13.70
2019-02-24T06:58:43.845Z,12.00
2019-02-24T06:59:43.829Z,12.10
2019-02-24T07:00:43.817Z,12.50
2019-02-24T07:01:43.829Z,13.70
2019-02-24T07:02:43.796Z,12.60
2019-02-24T07:03:43.787Z,12.90
2019-02-24T07:04:43.772Z,19.00
2019-02-24T07:05:43.760Z,14.50
2019-02-24T07:06:43.772Z,14.60
2019-02-24T07:07:43.737Z,12.50
2019-02-24T07:08:43.725Z,13.20
2019-02-24T07:09:43.723Z,12.60
2019-02-24T07:10:43.725Z,11.40
2019-02-24T07:11:43.734Z,12.30
2019-02-24T07:12:43.686Z,12.40
2019-02-24T07:13:43.676Z,13.80
2019-02-24T07:14:43.740Z,13.50
2019-02-24T07:15:43.650Z,13.10
2019-02-24T07:16:43.639Z,12.00
2019-02-24T07:17:43.660Z,12.70
2019-02-24T07:18:43.616Z,14.40
2019-02-24T07:19:43.609Z,14.80
2019-02-24T07:20:43.598Z,14.10
2019-02-24T07:21:43.588Z,12.00
2019-02-24T07:22:43.616Z,13.10
2019-02-24T07:23:43.565Z,14.70
2019-02-24T07:24:43.551Z,14.90
2019-02-24T07:25:43.541Z,12.20
2019-02-24T07:26:43.576Z,11.20
2019-02-24T07:27:43.525Z,13.00
2019-02-24T07:28:43.530Z,12.80
2019-02-24T07:29:43.498Z,10.90
2019-02-24T07:30:43.485Z,11.90
2019-02-24T07:31:43.477Z,12.10
2019-02-24T07:32:43.465Z,10.30
2019-02-24T07:33:43.477Z,13.70
2019-02-24T07:34:43.451Z,11.90
2019-02-24T07:35:43.430Z,12.30
2019-02-24T07:36:43.422Z,12.00
2019-02-24T07:37:43.407Z,12.40
2019-02-24T07:38:43.417Z,11.70
2019-02-24T07:39:43.386Z,10.80
2019-02-24T07:40:43.375Z,11.30
2019-02-24T07:41:43.365Z,12.30
2019-02-24T07:42:43.357Z,13.00
2019-02-24T07:43:43.364Z,11.80
2019-02-24T07:46:00.528Z,13.00
2019-02-24T07:47:00.520Z,12.60
2019-02-24T07:48:00.508Z,12.60
2019-02-24T07:49:00.529Z,11.60
2019-02-24T07:50:00.486Z,12.50
2019-02-24T07:51:00.484Z,12.90
2019-02-24T07:52:00.489Z,11.80
2019-02-24T07:53:00.454Z,12.90
2019-02-24T07:54:00.469Z,12.60
2019-02-24T07:55:00.454Z,11.70
2019-02-24T07:56:00.424Z,13.20
2019-02-24T07:57:00.410Z,11.20
2019-02-24T07:58:00.398Z,13.10
2019-02-24T07:59:00.388Z,12.60
2019-02-24T08:00:00.413Z,11.60
2019-02-24T08:01:00.368Z,13.10
2019-02-24T08:02:00.358Z,11.90
2019-02-24T08:03:00.345Z,12.10
2019-02-24T08:04:00.394Z,14.50
2019-02-24T08:05:00.360Z,12.30
2019-02-24T08:06:00.316Z,13.80
2019-02-24T08:07:00.306Z,15.90
2019-02-24T08:08:00.293Z,12.40
2019-02-24T08:09:00.280Z,13.40
2019-02-24T08:10:00.318Z,13.40
2019-02-24T08:11:00.257Z,14.50
2019-02-24T08:12:00.249Z,12.50
2019-02-24T08:13:00.238Z,14.00
2019-02-24T08:14:00.225Z,26.60
2019-02-24T08:15:00.293Z,15.40
2019-02-24T08:16:00.207Z,13.20
2019-02-24T08:17:00.192Z,15.00
2019-02-24T08:18:00.234Z,14.40
2019-02-24T08:19:00.170Z,12.20
2019-02-24T08:20:00.303Z,13.20
2019-02-24T08:21:00.214Z,11.90
2019-02-24T08:22:00.140Z,13.60
2019-02-24T08:23:00.131Z,13.00
2019-02-24T08:24:00.121Z,13.40
2019-02-24T08:25:00.206Z,13.80
2019-02-24T08:26:00.095Z,12.80
2019-02-24T08:27:00.084Z,12.80
2019-02-24T08:28:00.074Z,11.20
2019-02-24T08:29:00.065Z,11.50
2019-02-24T08:30:02.412Z,13.10
2019-02-24T08:31:00.062Z,13.50
2019-02-24T08:32:00.032Z,13.60
2019-02-24T08:33:00.024Z,12.40
2019-02-24T08:34:00.008Z,12.80
2019-02-24T08:35:00.001Z,11.40
2019-02-24T08:36:00.006Z,12.70
2019-02-24T08:36:59.975Z,13.70
2019-02-24T08:37:59.966Z,13.90
2019-02-24T08:38:59.956Z,12.10
2019-02-24T08:39:59.942Z,12.20
2019-02-24T08:40:59.955Z,12.30
2019-02-24T08:41:59.935Z,12.90
2019-02-24T08:42:59.911Z,12.10
2019-02-24T08:43:59.906Z,13.00
2019-02-24T08:44:59.889Z,16.80
2019-02-24T08:45:59.900Z,11.70
2019-02-24T08:46:59.873Z,11.10
2019-02-24T08:47:59.859Z,13.70
2019-02-24T08:48:59.845Z,10.60
2019-02-24T08:49:59.834Z,13.20
2019-02-24T08:50:59.849Z,12.60
2019-02-24T08:51:59.815Z,11.30
2019-02-24T08:52:59.802Z,11.80
2019-02-24T08:53:59.794Z,12.70
2019-02-24T08:54:59.778Z,11.70
2019-02-24T08:55:59.787Z,11.70
2019-02-24T08:56:59.757Z,10.50
2019-02-24T08:57:59.748Z,11.30
2019-02-24T08:58:59.735Z,10.70
2019-02-24T08:59:59.727Z,11.50
2019-02-24T09:00:59.739Z,13.30
2019-02-24T09:01:59.702Z,12.00
2019-02-24T09:02:59.692Z,12.80
2019-02-24T09:03:59.681Z,11.90
2019-02-24T09:04:59.673Z,11.40
2019-02-24T09:05:59.683Z,11.20
2019-02-24T09:06:59.647Z,11.30
2019-02-24T09:07:59.636Z,11.00
2019-02-24T09:08:59.630Z,10.70
2019-02-24T09:09:59.619Z,14.10
2019-02-24T09:10:59.624Z,10.70
2019-02-24T09:11:59.599Z,11.50
2019-02-24T09:12:59.583Z,10.80
2019-02-24T09:13:59.572Z,11.00
2019-02-24T09:14:59.560Z,11.50
2019-02-24T09:15:59.580Z,12.00
2019-02-24T09:16:59.540Z,10.40
2019-02-24T09:17:59.527Z,10.30
2019-02-24T09:18:59.522Z,11.50
2019-02-24T09:19:59.505Z,10.70
2019-02-24T09:20:59.519Z,10.00
2019-02-24T09:21:59.485Z,10.10
2019-02-24T09:22:59.478Z,9.70
2019-02-24T09:23:59.462Z,10.70
2019-02-24T09:24:59.455Z,10.20
2019-02-24T09:25:59.461Z,12.10
2019-02-24T09:26:59.429Z,10.30
2019-02-24T09:27:59.423Z,9.70
2019-02-24T09:28:59.408Z,12.30
2019-02-24T09:29:59.396Z,10.80
2019-02-24T09:31:00.997Z,10.00
2019-02-24T09:31:59.375Z,9.80
2019-02-24T09:32:59.369Z,10.20
2019-02-24T09:33:59.353Z,12.20
2019-02-24T09:34:59.343Z,10.60
2019-02-24T09:35:59.355Z,10.40
2019-02-24T09:36:59.319Z,9.50
2019-02-24T09:37:59.313Z,10.10
2019-02-24T09:38:59.298Z,10.60
2019-02-24T09:39:59.292Z,11.30
2019-02-24T09:41:01.249Z,11.10
2019-02-24T09:41:59.270Z,11.30
2019-02-24T09:42:59.256Z,9.10
2019-02-24T09:43:59.250Z,8.30
2019-02-24T09:44:59.237Z,11.50
2019-02-24T09:45:59.244Z,9.20
2019-02-24T09:46:59.215Z,8.10
2019-02-24T09:47:59.201Z,9.30
2019-02-24T09:48:59.189Z,11.50
2019-02-24T09:49:59.179Z,8.50
2019-02-24T09:50:59.188Z,9.20
2019-02-24T09:51:59.156Z,9.90
2019-02-24T09:52:59.146Z,9.00
2019-02-24T09:53:59.150Z,10.40
2019-02-24T09:54:59.125Z,9.80
2019-02-24T09:55:59.135Z,11.10
2019-02-24T09:56:59.101Z,10.30
2019-02-24T09:57:59.094Z,9.70
2019-02-24T09:58:59.081Z,9.40
2019-02-24T09:59:59.071Z,8.80
2019-02-24T10:00:59.087Z,8.80
2019-02-24T10:01:59.077Z,9.40
2019-02-24T10:02:59.036Z,7.50
2019-02-24T10:03:59.027Z,8.30
2019-02-24T10:04:59.033Z,8.80
2019-02-24T10:05:59.046Z,9.80
2019-02-24T10:06:58.992Z,8.80
2019-02-24T10:07:58.980Z,7.90
2019-02-24T10:08:58.978Z,7.80
2019-02-24T10:09:58.961Z,7.50
2019-02-24T10:10:58.948Z,7.70
2019-02-24T10:11:58.957Z,7.40
2019-02-24T10:12:58.926Z,6.90
2019-02-24T10:13:58.915Z,6.40
2019-02-24T10:14:58.906Z,7.80
2019-02-24T10:15:58.893Z,8.60
2019-02-24T10:17:00.657Z,7.50
2019-02-24T10:17:58.873Z,8.00
2019-02-24T10:18:58.863Z,7.60
2019-02-24T10:19:58.852Z,7.50
2019-02-24T10:20:58.838Z,7.30
2019-02-24T10:21:58.853Z,7.30
2019-02-24T10:22:58.818Z,7.80
2019-02-24T10:23:58.807Z,8.40
2019-02-24T10:24:58.802Z,7.60
2019-02-24T10:25:58.790Z,8.60
2019-02-24T10:26:59.171Z,8.90
2019-02-24T10:27:58.763Z,8.30
2019-02-24T10:28:58.772Z,8.10
2019-02-24T10:29:58.740Z,7.80
2019-02-24T10:30:58.729Z,7.70
2019-02-24T10:31:58.718Z,8.20
2019-02-24T10:32:58.728Z,8.40
2019-02-24T10:33:58.697Z,7.10
2019-02-24T10:34:58.685Z,10.90
2019-02-24T10:35:58.682Z,8.30
2019-02-24T10:36:58.671Z,7.90
2019-02-24T10:37:58.685Z,9.20
2019-02-24T10:38:58.642Z,8.10
2019-02-24T10:39:58.636Z,8.20
2019-02-24T10:40:58.621Z,8.10
2019-02-24T10:41:58.610Z,7.10
2019-02-24T10:42:58.640Z,8.20
2019-02-24T10:43:58.586Z,8.00
2019-02-24T10:44:58.574Z,8.90
2019-02-24T10:45:58.590Z,9.60
2019-02-24T10:46:58.553Z,8.70
2019-02-24T10:47:58.631Z,7.00
2019-02-24T10:49:03.245Z,8.90
2019-02-24T10:49:59.523Z,9.10
2019-02-24T10:50:58.510Z,9.60
2019-02-24T10:51:58.502Z,8.10
2019-02-24T10:52:58.492Z,8.60
2019-02-24T10:53:58.501Z,8.10
2019-02-24T10:54:58.468Z,8.70
2019-02-24T10:55:58.453Z,7.80
2019-02-24T10:56:58.443Z,7.60
2019-02-24T10:57:58.437Z,9.90
2019-02-24T10:58:58.444Z,7.20
2019-02-24T10:59:58.411Z,8.10
2019-02-24T11:00:58.403Z,7.50
2019-02-24T11:01:58.389Z,7.20
2019-02-24T11:02:58.378Z,9.00
2019-02-24T11:03:58.391Z,8.60
2019-02-24T11:04:58.356Z,8.20
2019-02-24T11:05:58.344Z,8.40
2019-02-24T11:06:58.335Z,9.30
2019-02-24T11:07:58.322Z,7.80
2019-02-24T11:08:59.176Z,7.40
2019-02-24T11:09:58.304Z,7.80
2019-02-24T11:10:58.289Z,8.10
2019-02-24T11:11:58.279Z,7.10
2019-02-24T11:12:58.268Z,8.00
2019-02-24T11:13:58.281Z,7.60
2019-02-24T11:14:58.246Z,6.60
2019-02-24T11:15:58.235Z,7.20
2019-02-24T11:16:58.227Z,8.30
2019-02-24T11:17:58.216Z,7.10
2019-02-24T11:18:58.229Z,7.10
2019-02-24T11:19:58.190Z,7.30
2019-02-24T11:20:58.186Z,7.30
2019-02-24T11:21:58.170Z,7.80
2019-02-24T11:22:58.163Z,7.80
2019-02-24T11:23:58.170Z,7.10
2019-02-24T11:24:58.134Z,8.50
2019-02-24T11:25:58.124Z,7.30
2019-02-24T11:26:58.115Z,7.00
2019-02-24T11:27:58.104Z,8.90
2019-02-24T11:28:58.121Z,8.10
2019-02-24T11:29:58.081Z,8.30
2019-02-24T11:30:58.079Z,7.60
2019-02-24T11:31:58.059Z,7.30
2019-02-24T11:32:58.048Z,6.20
2019-02-24T11:33:58.041Z,6.10
2019-02-24T11:34:58.045Z,6.70
2019-02-24T11:35:58.019Z,6.20
2019-02-24T11:36:58.003Z,5.30
2019-02-24T11:37:58.001Z,7.30
2019-02-24T11:38:57.981Z,7.00
2019-02-24T11:39:57.995Z,4.70
2019-02-24T11:40:57.959Z,5.80
2019-02-24T11:41:57.950Z,6.70
2019-02-24T11:42:57.944Z,6.10
2019-02-24T11:43:57.928Z,5.90
2019-02-24T11:44:57.939Z,6.60
2019-02-24T11:45:57.908Z,7.30
2019-02-24T11:46:57.897Z,5.80
2019-02-24T11:47:57.884Z,5.60
2019-02-24T11:48:57.876Z,6.50
2019-02-24T11:49:59.689Z,6.40
2019-02-24T11:50:57.850Z,6.20
2019-02-24T11:52:03.654Z,6.00
2019-02-24T11:52:58.831Z,8.10
2019-02-24T11:53:57.818Z,6.10
2019-02-24T11:54:57.805Z,6.50
2019-02-24T11:55:57.818Z,4.80
2019-02-24T11:56:57.787Z,4.70
2019-02-24T11:57:57.773Z,6.30
2019-02-24T11:58:57.761Z,5.90
2019-02-24T11:59:57.795Z,5.50
2019-02-24T12:00:57.759Z,6.20
2019-02-24T12:01:57.728Z,5.00
2019-02-24T12:02:57.739Z,4.60
2019-02-24T12:03:57.707Z,4.40
2019-02-24T12:04:57.697Z,4.60
2019-02-24T12:05:57.707Z,5.40
2019-02-24T12:06:57.676Z,6.00
2019-02-24T12:07:57.662Z,4.30
2019-02-24T12:09:05.058Z,4.00
2019-02-24T12:09:58.639Z,4.10
2019-02-24T12:10:57.654Z,4.90
2019-02-24T12:11:57.671Z,5.00
2019-02-24T12:12:57.609Z,5.60
2019-02-24T12:13:57.600Z,3.80
2019-02-24T12:14:57.585Z,3.60
2019-02-24T12:15:57.599Z,5.70
2019-02-24T12:16:57.564Z,5.30
2019-02-24T12:17:57.552Z,4.60
2019-02-24T12:18:57.541Z,4.00
2019-02-24T12:19:57.531Z,3.30
2019-02-24T12:20:57.543Z,4.10
2019-02-24T12:21:57.513Z,4.40
2019-02-24T12:22:57.498Z,4.00
2019-02-24T12:23:57.490Z,4.40
2019-02-24T12:24:57.476Z,3.70
2019-02-24T12:25:57.502Z,6.20
2019-02-24T12:26:57.482Z,6.10
2019-02-24T12:27:57.443Z,5.20
2019-02-24T12:28:57.437Z,3.50
2019-02-24T12:29:57.422Z,4.00
2019-02-24T12:30:57.413Z,4.50
2019-02-24T12:31:57.420Z,4.50
2019-02-24T12:32:57.387Z,4.00
2019-02-24T12:33:57.377Z,3.60
2019-02-24T12:34:57.372Z,7.30
2019-02-24T12:35:57.359Z,4.50
2019-02-24T12:36:57.368Z,4.10
2019-02-24T12:37:57.331Z,3.90
2019-02-24T12:38:57.322Z,5.70
2019-02-24T12:39:57.313Z,4.60
2019-02-24T12:40:57.298Z,4.20
2019-02-24T12:41:57.290Z,4.30
2019-02-24T12:42:57.297Z,3.40
2019-02-24T12:43:57.267Z,3.00
2019-02-24T12:44:57.254Z,3.30
2019-02-24T12:45:57.243Z,3.70
2019-02-24T12:46:57.240Z,4.60
2019-02-24T12:47:57.244Z,4.20
2019-02-24T12:48:57.209Z,3.80
2019-02-24T12:50:03.146Z,3.30
2019-02-24T12:50:58.223Z,3.40
2019-02-24T12:51:57.178Z,4.60
2019-02-24T12:52:57.188Z,5.40
2019-02-24T12:53:57.160Z,3.70
2019-02-24T12:54:57.145Z,4.10
2019-02-24T12:55:57.133Z,3.40
2019-02-24T12:56:57.127Z,3.90
2019-02-24T12:57:57.132Z,5.30
2019-02-24T12:58:57.101Z,4.80
2019-02-24T12:59:57.093Z,4.90
2019-02-24T13:00:57.079Z,6.10